Milan, Pennsylvania
Current Conditions -  °F | °C
As of 11:19 PM on Thursday 27 Nov 2014 (Local Time) from KELM Reporting Station
Light Snow Light Snow  
Wind Chill: -2°   Ceiling: 2600
Heat Index: -2°   Visibility: 1.5mi
Dew Point: -3°   Wind: 0mph
Humidity: 92%   Direction: NA
Pressure: 30.06"   Gusts: NA
Location:  41.91°N, 76.52°W
Report Text: KELM 280419Z 00000KT 1 1/2SM -SN BR BKN026 OVC035 M02/M03 A3006 RMK AO2 P0000 T10171028
Loading
Personal Weather Stations






























Interactive Weather Map New forecast layout! Learn more

10-Day Weather Forecast

Advertisements
Track Severe Weather on mobile